createdAt,value
2023-05-10T00:01:05.885Z,100777.36
2023-05-10T00:03:33.580Z,100771.80
2023-05-10T00:06:01.155Z,100771.46
2023-05-10T00:08:28.644Z,100776.52
2023-05-10T00:10:56.233Z,100773.59
2023-05-10T00:13:24.032Z,100772.05
2023-05-10T00:15:51.996Z,100775.70
2023-05-10T00:18:20.732Z,100775.73
2023-05-10T00:20:49.885Z,100772.45
2023-05-10T00:23:17.410Z,100766.56
2023-05-10T00:25:44.916Z,100767.97
2023-05-10T00:28:12.975Z,100767.63
2023-05-10T00:30:43.254Z,100767.30
2023-05-10T00:33:12.500Z,100764.52
2023-05-10T00:35:40.339Z,100754.77
2023-05-10T00:38:08.213Z,100757.73
2023-05-10T00:40:38.281Z,100758.10
2023-05-10T00:43:05.898Z,100754.47
2023-05-10T00:45:34.395Z,100754.84
2023-05-10T00:48:03.236Z,100751.39
2023-05-10T00:50:32.426Z,100749.68
2023-05-10T00:53:01.729Z,100749.54
2023-05-10T00:55:29.498Z,100747.14
2023-05-10T00:57:57.065Z,100746.45
2023-05-10T01:00:26.413Z,100748.23
2023-05-10T01:02:57.150Z,100745.83
2023-05-10T01:05:25.849Z,100743.77
2023-05-10T01:07:53.610Z,100740.84
2023-05-10T01:10:21.197Z,100742.42
2023-05-10T01:12:49.346Z,100741.94
2023-05-10T01:15:19.190Z,100740.92
2023-05-10T01:17:48.801Z,100739.40
2023-05-10T01:20:17.232Z,100733.86
2023-05-10T01:23:05.531Z,100733.36
2023-05-10T01:25:35.780Z,100733.21
2023-05-10T01:28:21.956Z,100730.83
2023-05-10T01:31:20.658Z,100732.23
2023-05-10T01:34:13.785Z,100735.20
2023-05-10T01:36:48.927Z,100731.59
2023-05-10T01:39:16.848Z,100729.21
2023-05-10T01:41:53.306Z,100729.38
2023-05-10T01:44:40.418Z,100730.10
2023-05-10T01:47:15.490Z,100733.24
2023-05-10T01:49:54.392Z,100727.55
2023-05-10T01:52:32.249Z,100731.38
2023-05-10T01:55:09.280Z,100726.20
2023-05-10T01:57:40.726Z,100728.82
2023-05-10T02:00:09.725Z,100726.06
2023-05-10T02:02:45.774Z,100721.91
2023-05-10T02:05:16.315Z,100725.23
2023-05-10T02:07:44.991Z,100728.38
2023-05-10T02:10:14.863Z,100725.80
2023-05-10T02:12:46.341Z,100728.74
2023-05-10T02:15:19.759Z,100723.23
2023-05-10T02:17:48.316Z,100720.80
2023-05-10T02:20:19.746Z,100721.34
2023-05-10T02:22:51.340Z,100723.77
2023-05-10T02:25:22.147Z,100723.94
2023-05-10T02:27:50.964Z,100719.27
2023-05-10T02:30:20.112Z,100717.35
2023-05-10T02:32:49.226Z,100720.15
2023-05-10T02:35:17.840Z,100718.23
2023-05-10T02:37:46.783Z,100715.98
2023-05-10T02:40:17.788Z,100717.39
2023-05-10T02:42:51.430Z,100714.61
2023-05-10T02:45:23.029Z,100717.07
2023-05-10T02:47:50.597Z,100713.42
2023-05-10T02:50:19.510Z,100716.02
2023-05-10T02:53:01.647Z,100715.51
2023-05-10T02:55:33.905Z,100714.49
2023-05-10T02:58:03.120Z,100715.52
2023-05-10T03:00:30.848Z,100718.12
2023-05-10T03:02:59.084Z,100716.23
2023-05-10T03:05:26.712Z,100717.45
2023-05-10T03:07:55.292Z,100718.30
2023-05-10T03:10:29.230Z,100720.74
2023-05-10T03:13:24.048Z,100721.44
2023-05-10T03:16:08.766Z,100724.70
2023-05-10T03:18:57.527Z,100729.04
2023-05-10T03:21:29.759Z,100726.27
2023-05-10T03:24:07.870Z,100727.83
2023-05-10T03:26:36.972Z,100727.48
2023-05-10T03:29:07.223Z,100724.67
2023-05-10T03:31:35.197Z,100719.98
2023-05-10T03:34:02.743Z,100717.03
2023-05-10T03:36:30.423Z,100716.67
2023-05-10T03:38:57.945Z,100715.30
2023-05-10T03:41:26.463Z,100715.62
2023-05-10T03:43:54.252Z,100713.52
2023-05-10T03:46:21.837Z,100711.95
2023-05-10T03:48:49.416Z,100707.92
2023-05-10T03:51:16.924Z,100706.69
2023-05-10T03:53:44.455Z,100708.05
2023-05-10T03:56:11.991Z,100711.66
2023-05-10T03:58:39.553Z,100709.54
2023-05-10T04:01:07.086Z,100707.77
2023-05-10T04:03:37.413Z,100706.86
2023-05-10T04:06:06.269Z,100702.66
2023-05-10T04:08:33.835Z,100706.08
2023-05-10T04:11:09.536Z,100701.36
2023-05-10T04:13:37.643Z,100703.21
2023-05-10T04:16:05.792Z,100705.07
2023-05-10T04:18:33.654Z,100701.54
2023-05-10T04:21:01.210Z,100699.58
2023-05-10T04:23:29.074Z,100700.39
2023-05-10T04:26:03.152Z,100700.32
2023-05-10T04:28:30.810Z,100703.21
2023-05-10T04:31:06.114Z,100698.80
2023-05-10T04:33:35.024Z,100700.98
2023-05-10T04:36:03.973Z,100702.47
2023-05-10T04:38:32.619Z,100699.61
2023-05-10T04:41:08.516Z,100697.29
2023-05-10T04:43:38.584Z,100696.14
2023-05-10T04:46:08.448Z,100694.66
2023-05-10T04:48:36.279Z,100691.11
2023-05-10T04:51:04.946Z,100690.33
2023-05-10T04:53:33.235Z,100696.14
2023-05-10T04:56:01.133Z,100694.83
2023-05-10T04:58:28.853Z,100692.48
2023-05-10T05:00:56.367Z,100695.85
2023-05-10T05:03:24.013Z,100695.91
2023-05-10T05:05:51.838Z,100689.87
2023-05-10T05:08:19.443Z,100688.20
2023-05-10T05:10:46.943Z,100688.41
2023-05-10T05:13:14.442Z,100688.79
2023-05-10T05:15:41.982Z,100691.43
2023-05-10T05:18:09.538Z,100690.94
2023-05-10T05:20:37.561Z,100689.05
2023-05-10T05:23:05.287Z,100687.52
2023-05-10T05:25:35.454Z,100689.77
2023-05-10T05:28:14.319Z,100689.20
2023-05-10T05:30:51.461Z,100691.11
2023-05-10T05:33:20.085Z,100689.19
2023-05-10T05:35:51.743Z,100687.06
2023-05-10T05:38:19.303Z,100687.38
2023-05-10T05:40:52.388Z,100684.39
2023-05-10T05:43:19.907Z,100684.57
2023-05-10T05:45:47.753Z,100683.14
2023-05-10T05:48:15.412Z,100683.83
2023-05-10T05:50:44.056Z,100686.76
2023-05-10T05:53:11.771Z,100681.84
2023-05-10T05:55:39.524Z,100678.88
2023-05-10T05:58:09.470Z,100678.55
2023-05-10T06:00:39.677Z,100676.09
2023-05-10T06:03:10.574Z,100672.89
2023-05-10T06:05:38.118Z,100671.29
2023-05-10T06:08:05.777Z,100673.66
2023-05-10T06:10:35.150Z,100672.29
2023-05-10T06:13:11.055Z,100672.70
2023-05-10T06:15:42.576Z,100672.80
2023-05-10T06:18:24.306Z,100676.83
2023-05-10T06:21:05.304Z,100679.26
2023-05-10T06:24:00.228Z,100677.59
2023-05-10T06:26:36.565Z,100669.96
2023-05-10T06:29:04.649Z,100669.71
2023-05-10T06:31:32.544Z,100665.74
2023-05-10T06:34:00.144Z,100668.57
2023-05-10T06:36:28.156Z,100669.27
2023-05-10T06:38:56.100Z,100665.76
2023-05-10T06:41:24.980Z,100664.40
2023-05-10T06:43:52.870Z,100668.58
2023-05-10T06:46:20.526Z,100669.37
2023-05-10T06:48:48.249Z,100673.13
2023-05-10T06:51:15.865Z,100676.28
2023-05-10T06:53:43.358Z,100673.70
2023-05-10T06:56:11.093Z,100671.34
2023-05-10T06:58:39.122Z,100673.24
2023-05-10T07:01:06.775Z,100675.20
2023-05-10T07:03:34.592Z,100666.83
2023-05-10T07:06:05.956Z,100666.33
2023-05-10T07:08:39.538Z,100666.34
2023-05-10T07:11:11.168Z,100664.20
2023-05-10T07:13:40.593Z,100665.02
2023-05-10T07:16:08.859Z,100665.05
2023-05-10T07:18:37.045Z,100667.91
2023-05-10T07:21:05.059Z,100666.75
2023-05-10T07:23:32.747Z,100661.24
2023-05-10T07:26:00.935Z,100661.27
2023-05-10T07:28:28.670Z,100663.94
2023-05-10T07:30:56.394Z,100669.20
2023-05-10T07:33:24.051Z,100656.89
2023-05-10T07:35:51.998Z,100668.91
2023-05-10T07:38:19.578Z,100656.38
2023-05-10T07:40:47.276Z,100664.11
2023-05-10T07:43:14.751Z,100663.64
2023-05-10T07:45:42.623Z,100662.80
2023-05-10T07:48:10.225Z,100653.19
2023-05-10T07:50:37.747Z,100667.35
2023-05-10T07:53:05.386Z,100663.17
2023-05-10T07:55:33.434Z,100651.54
2023-05-10T07:58:09.494Z,100647.78
2023-05-10T08:00:52.903Z,100642.09
2023-05-10T08:03:29.762Z,100649.80
2023-05-10T08:06:06.764Z,100640.23
2023-05-10T08:08:54.347Z,100648.20
2023-05-10T08:11:26.559Z,100641.55
2023-05-10T08:13:59.600Z,100638.75
2023-05-10T08:16:28.656Z,100630.26
2023-05-10T08:19:04.823Z,100633.23
2023-05-10T08:21:47.551Z,100635.65
2023-05-10T08:24:17.868Z,100632.06
2023-05-10T08:26:55.038Z,100628.21
2023-05-10T08:29:50.208Z,100634.92
2023-05-10T08:32:28.391Z,100634.10
2023-05-10T08:34:59.664Z,100628.23
2023-05-10T08:37:43.122Z,100627.51
2023-05-10T08:40:16.836Z,100635.52
2023-05-10T08:42:52.251Z,100638.83
2023-05-10T08:45:24.040Z,100644.32
2023-05-10T08:47:54.229Z,100639.77
2023-05-10T08:50:23.204Z,100636.36
2023-05-10T08:52:57.100Z,100634.53
2023-05-10T08:55:25.307Z,100639.48
2023-05-10T08:57:53.049Z,100637.86
2023-05-10T09:00:21.621Z,100624.14
2023-05-10T09:02:53.685Z,100619.73
2023-05-10T09:05:21.291Z,100630.76
2023-05-10T09:07:48.787Z,100619.38
2023-05-10T09:10:17.569Z,100617.15
2023-05-10T09:12:46.654Z,100618.21
2023-05-10T09:15:18.111Z,100627.15
2023-05-10T09:17:47.120Z,100624.61
2023-05-10T09:20:14.673Z,100624.95
2023-05-10T09:22:42.229Z,100622.09
2023-05-10T09:25:17.636Z,100615.77
2023-05-10T09:27:47.335Z,100623.88
2023-05-10T09:30:35.277Z,100624.20
2023-05-10T09:33:03.622Z,100618.48
2023-05-10T09:35:32.998Z,100621.74
2023-05-10T09:38:05.075Z,100620.44
2023-05-10T09:40:33.332Z,100615.96
2023-05-10T09:43:07.008Z,100614.39
2023-05-10T09:45:38.507Z,100603.41
2023-05-10T09:48:07.560Z,100604.05
2023-05-10T09:50:37.562Z,100600.88
2023-05-10T09:53:05.183Z,100602.36
2023-05-10T09:55:48.341Z,100602.47
2023-05-10T09:58:16.195Z,100586.86
2023-05-10T10:00:46.122Z,100594.24
2023-05-10T10:03:19.436Z,100592.02
2023-05-10T10:05:48.927Z,100589.50
2023-05-10T10:08:17.780Z,100584.24
2023-05-10T10:10:46.914Z,100577.17
2023-05-10T10:13:15.009Z,100573.43
2023-05-10T10:15:45.019Z,100568.91
2023-05-10T10:18:18.643Z,100566.40
2023-05-10T10:20:46.971Z,100566.40
2023-05-10T10:23:17.296Z,100559.36
2023-05-10T10:25:53.371Z,100549.92
2023-05-10T10:28:33.515Z,100554.95
2023-05-10T10:31:16.922Z,100557.09
2023-05-10T10:34:12.566Z,100550.50
2023-05-10T10:36:48.004Z,100558.56
2023-05-10T10:39:22.313Z,100541.83
2023-05-10T10:41:56.166Z,100552.33
2023-05-10T10:44:29.527Z,100545.79
2023-05-10T10:47:03.743Z,100550.30
2023-05-10T10:49:43.858Z,100547.95
2023-05-10T10:52:34.975Z,100534.63
2023-05-10T10:55:30.819Z,100523.28
2023-05-10T10:58:01.757Z,100545.91
2023-05-10T11:00:46.556Z,100539.04
2023-05-10T11:03:18.184Z,100522.30
2023-05-10T11:05:48.241Z,100541.48
2023-05-10T11:08:18.991Z,100538.11
2023-05-10T11:11:10.009Z,100530.98
2023-05-10T11:13:44.895Z,100528.21
2023-05-10T11:16:27.932Z,100526.27
2023-05-10T11:19:12.979Z,100526.21
2023-05-10T11:22:13.910Z,100526.08
2023-05-10T11:24:59.559Z,100515.05
2023-05-10T11:27:27.620Z,100516.20
2023-05-10T11:29:55.267Z,100523.63
2023-05-10T11:32:23.926Z,100517.34
2023-05-10T11:34:55.134Z,100509.41
2023-05-10T11:37:23.563Z,100507.59
2023-05-10T11:39:51.628Z,100506.08
2023-05-10T11:42:21.854Z,100508.99
2023-05-10T11:44:50.818Z,100515.06
2023-05-10T11:47:18.541Z,100512.31
2023-05-10T11:49:47.680Z,100504.74
2023-05-10T11:52:15.307Z,100505.27
2023-05-10T11:54:59.489Z,100506.17
2023-05-10T11:57:29.546Z,100496.94
2023-05-10T11:59:58.523Z,100492.58
2023-05-10T12:02:26.561Z,100499.81
2023-05-10T12:04:57.494Z,100500.44
2023-05-10T12:07:27.246Z,100502.98
2023-05-10T12:10:21.380Z,100507.71
2023-05-10T12:12:53.553Z,100514.95
2023-05-10T12:15:24.142Z,100515.33
2023-05-10T12:17:52.522Z,100505.77
2023-05-10T12:20:25.376Z,100505.52
2023-05-10T12:22:55.164Z,100500.68
2023-05-10T12:25:25.565Z,100496.32
2023-05-10T12:27:56.834Z,100501.93
2023-05-10T12:30:34.854Z,100507.23
2023-05-10T12:33:11.909Z,100503.79
2023-05-10T12:35:57.434Z,100498.55
2023-05-10T12:38:35.234Z,100497.75
2023-05-10T12:41:08.537Z,100495.11
2023-05-10T12:43:36.942Z,100503.84
2023-05-10T12:46:12.819Z,100499.98
2023-05-10T12:48:42.763Z,100498.42
2023-05-10T12:51:27.391Z,100502.36
2023-05-10T12:53:58.498Z,100495.70
2023-05-10T12:56:28.016Z,100493.67
2023-05-10T12:59:18.755Z,100494.39
2023-05-10T13:01:46.699Z,100487.09
2023-05-10T13:04:20.485Z,100483.25
2023-05-10T13:06:51.969Z,100484.71
2023-05-10T13:09:30.504Z,100478.90
2023-05-10T13:11:58.420Z,100481.75
2023-05-10T13:14:26.707Z,100478.48
2023-05-10T13:16:54.894Z,100474.69
2023-05-10T13:19:22.548Z,100472.14
2023-05-10T13:21:50.046Z,100468.95
2023-05-10T13:24:18.444Z,100482.23
2023-05-10T13:26:47.543Z,100474.64
2023-05-10T13:29:19.222Z,100478.25
2023-05-10T13:31:47.761Z,100475.74
2023-05-10T13:34:17.178Z,100475.21
2023-05-10T13:36:50.448Z,100472.27
2023-05-10T13:39:21.752Z,100469.34
2023-05-10T13:41:49.956Z,100469.48
2023-05-10T13:44:17.570Z,100462.04
2023-05-10T13:46:45.786Z,100462.23
2023-05-10T13:49:14.058Z,100456.61
2023-05-10T13:51:43.514Z,100459.42
2023-05-10T13:54:13.409Z,100461.98
2023-05-10T13:56:43.534Z,100458.89
2023-05-10T13:59:11.374Z,100451.55
2023-05-10T14:01:39.444Z,100447.77
2023-05-10T14:04:11.602Z,100452.64
2023-05-10T14:06:39.809Z,100456.17
2023-05-10T14:09:07.983Z,100451.17
2023-05-10T14:11:36.305Z,100449.08
2023-05-10T14:14:04.550Z,100450.15
2023-05-10T14:16:32.879Z,100448.65
2023-05-10T14:19:00.653Z,100445.08
2023-05-10T14:21:30.442Z,100435.52
2023-05-10T14:23:58.075Z,100435.58
2023-05-10T14:26:25.810Z,100439.05
2023-05-10T14:28:53.834Z,100436.20
2023-05-10T14:31:21.604Z,100435.77
2023-05-10T14:33:49.275Z,100442.23
2023-05-10T14:36:17.137Z,100444.98
2023-05-10T14:38:44.769Z,100444.12
2023-05-10T14:41:15.930Z,100432.54
2023-05-10T14:43:44.617Z,100437.70
2023-05-10T14:46:14.062Z,100436.66
2023-05-10T14:48:41.909Z,100425.92
2023-05-10T14:51:09.752Z,100430.16
2023-05-10T14:53:38.679Z,100432.36
2023-05-10T14:56:07.497Z,100428.56
2023-05-10T14:58:35.472Z,100429.29
2023-05-10T15:01:03.496Z,100429.40
2023-05-10T15:03:32.732Z,100432.19
2023-05-10T15:06:01.551Z,100436.16
2023-05-10T15:08:29.897Z,100434.11
2023-05-10T15:10:58.334Z,100434.58
2023-05-10T15:13:26.420Z,100433.64
2023-05-10T15:15:54.279Z,100430.02
2023-05-10T15:18:25.881Z,100428.61
2023-05-10T15:20:53.511Z,100430.83
2023-05-10T15:23:21.161Z,100429.96
2023-05-10T15:25:50.678Z,100431.75
2023-05-10T15:28:18.262Z,100429.80
2023-05-10T15:30:45.905Z,100430.84
2023-05-10T15:33:13.502Z,100430.28
2023-05-10T15:35:41.963Z,100426.11
2023-05-10T15:38:10.703Z,100427.56
2023-05-10T15:40:38.529Z,100428.73
2023-05-10T15:43:09.051Z,100425.31
2023-05-10T15:45:37.873Z,100424.48
2023-05-10T15:48:06.032Z,100423.87
2023-05-10T15:50:35.230Z,100428.73
2023-05-10T15:53:03.013Z,100422.84
2023-05-10T15:55:31.045Z,100422.91
2023-05-10T15:57:58.839Z,100418.29
2023-05-10T16:00:26.758Z,100421.44
2023-05-10T16:02:54.375Z,100423.32
2023-05-10T16:05:22.614Z,100422.91
2023-05-10T16:07:50.163Z,100425.77
2023-05-10T16:10:17.721Z,100425.24
2023-05-10T16:12:45.273Z,100424.39
2023-05-10T16:15:12.928Z,100424.30
2023-05-10T16:17:41.511Z,100417.71
2023-05-10T16:20:09.535Z,100418.96
2023-05-10T16:22:38.555Z,100423.80
2023-05-10T16:25:06.705Z,100422.44
2023-05-10T16:27:34.362Z,100425.02
2023-05-10T16:30:02.189Z,100430.13
2023-05-10T16:32:29.858Z,100428.56
2023-05-10T16:34:58.921Z,100430.27
2023-05-10T16:37:28.040Z,100435.11
2023-05-10T16:39:55.608Z,100437.34
2023-05-10T16:42:25.052Z,100435.94
2023-05-10T16:44:53.624Z,100434.80
2023-05-10T16:47:21.108Z,100438.36
2023-05-10T16:49:49.362Z,100435.57
2023-05-10T16:52:17.096Z,100437.06
2023-05-10T16:54:45.143Z,100437.28
2023-05-10T16:57:12.704Z,100443.35
2023-05-10T16:59:40.715Z,100438.38
2023-05-10T17:02:08.384Z,100438.74
2023-05-10T17:04:36.091Z,100446.54
2023-05-10T17:07:04.158Z,100451.77
2023-05-10T17:09:31.712Z,100451.48
2023-05-10T17:11:59.173Z,100455.48
2023-05-10T17:14:26.897Z,100452.50
2023-05-10T17:16:55.467Z,100454.68
2023-05-10T17:19:25.630Z,100462.20
2023-05-10T17:21:53.978Z,100461.62
2023-05-10T17:24:21.570Z,100462.47
2023-05-10T17:26:49.119Z,100470.22
2023-05-10T17:29:20.503Z,100476.63
2023-05-10T17:31:48.798Z,100475.47
2023-05-10T17:34:24.007Z,100476.73
2023-05-10T17:36:51.622Z,100481.06
2023-05-10T17:39:19.456Z,100485.97
2023-05-10T17:41:47.197Z,100486.21
2023-05-10T17:44:14.955Z,100490.77
2023-05-10T17:46:42.747Z,100497.15
2023-05-10T17:49:10.660Z,100496.26
2023-05-10T17:51:41.543Z,100501.80
2023-05-10T17:54:09.602Z,100505.49
2023-05-10T17:56:37.249Z,100504.23
2023-05-10T17:59:05.461Z,100509.87
2023-05-10T18:01:33.291Z,100513.01
2023-05-10T18:04:04.700Z,100514.27
2023-05-10T18:06:40.291Z,100519.73
2023-05-10T18:09:08.474Z,100520.59
2023-05-10T18:11:36.764Z,100518.48
2023-05-10T18:14:04.765Z,100520.50
2023-05-10T18:16:32.409Z,100522.98
2023-05-10T18:19:00.218Z,100526.48
2023-05-10T18:21:39.008Z,100531.02
2023-05-10T18:24:07.436Z,100534.80
2023-05-10T18:26:35.750Z,100538.53
2023-05-10T18:29:03.302Z,100543.02
2023-05-10T18:31:30.862Z,100543.75
2023-05-10T18:33:58.620Z,100544.38
2023-05-10T18:36:26.290Z,100549.66
2023-05-10T18:38:54.615Z,100556.71
2023-05-10T18:41:22.329Z,100559.19
2023-05-10T18:43:50.054Z,100560.92
2023-05-10T18:46:17.887Z,100568.58
2023-05-10T18:48:46.317Z,100568.30
2023-05-10T18:51:13.978Z,100574.83
2023-05-10T18:53:41.704Z,100576.19
2023-05-10T18:56:09.393Z,100579.30
2023-05-10T18:58:37.175Z,100580.10
2023-05-10T19:01:05.020Z,100579.90
2023-05-10T19:03:32.746Z,100585.45
2023-05-10T19:06:00.543Z,100588.84
2023-05-10T19:08:28.202Z,100588.91
2023-05-10T19:10:55.814Z,100592.27
2023-05-10T19:13:24.657Z,100592.95
2023-05-10T19:16:12.423Z,100592.86
2023-05-10T19:18:40.143Z,100592.65
2023-05-10T19:21:10.305Z,100597.03
2023-05-10T19:23:42.894Z,100595.24
2023-05-10T19:26:11.283Z,100597.47
2023-05-10T19:28:39.508Z,100600.94
2023-05-10T19:31:08.464Z,100602.91
2023-05-10T19:33:38.334Z,100602.59
2023-05-10T19:36:07.335Z,100601.13
2023-05-10T19:38:35.494Z,100603.14
2023-05-10T19:41:04.051Z,100605.71
2023-05-10T19:43:36.629Z,100605.08
2023-05-10T19:46:04.551Z,100608.08
2023-05-10T19:48:32.188Z,100608.99
2023-05-10T19:51:02.595Z,100609.20
2023-05-10T19:53:31.644Z,100605.17
2023-05-10T19:56:04.783Z,100605.02
2023-05-10T19:58:35.761Z,100607.17
2023-05-10T20:01:05.589Z,100607.23
2023-05-10T20:03:36.235Z,100607.73
2023-05-10T20:06:04.303Z,100605.42
2023-05-10T20:08:31.986Z,100611.52
2023-05-10T20:11:02.717Z,100610.11
2023-05-10T20:13:30.702Z,100613.98
2023-05-10T20:15:59.440Z,100613.45
2023-05-10T20:18:27.305Z,100616.57
2023-05-10T20:20:56.095Z,100616.16
2023-05-10T20:23:23.842Z,100616.66
2023-05-10T20:25:51.716Z,100615.23
2023-05-10T20:28:28.240Z,100614.67
2023-05-10T20:30:56.291Z,100620.36
2023-05-10T20:33:26.352Z,100618.55
2023-05-10T20:35:56.698Z,100620.57
2023-05-10T20:38:25.179Z,100620.16
2023-05-10T20:40:59.649Z,100622.90
2023-05-10T20:43:29.041Z,100624.74
2023-05-10T20:46:05.552Z,100620.83
2023-05-10T20:48:36.087Z,100626.68
2023-05-10T20:51:04.346Z,100627.28
2023-05-10T20:53:33.643Z,100629.13
2023-05-10T20:56:03.046Z,100629.10
2023-05-10T20:58:38.969Z,100628.31
2023-05-10T21:01:06.869Z,100633.27
2023-05-10T21:03:44.379Z,100633.55
2023-05-10T21:06:14.052Z,100637.33
2023-05-10T21:08:41.656Z,100642.50
2023-05-10T21:11:09.287Z,100641.72
2023-05-10T21:13:36.913Z,100646.33
2023-05-10T21:16:05.223Z,100643.47
2023-05-10T21:18:32.969Z,100644.60
2023-05-10T21:21:00.844Z,100649.91
2023-05-10T21:23:28.457Z,100648.41
2023-05-10T21:25:56.188Z,100649.04
2023-05-10T21:28:24.350Z,100649.31
2023-05-10T21:30:51.941Z,100645.54
2023-05-10T21:33:19.578Z,100648.77
2023-05-10T21:35:47.256Z,100648.82
2023-05-10T21:38:15.612Z,100650.12
2023-05-10T21:40:43.179Z,100648.45
2023-05-10T21:43:11.500Z,100650.13
2023-05-10T21:45:39.673Z,100651.08
2023-05-10T21:48:09.333Z,100653.80
2023-05-10T21:50:37.088Z,100651.96
2023-05-10T21:53:05.234Z,100657.45
2023-05-10T21:55:34.464Z,100658.61
2023-05-10T21:58:01.973Z,100661.84
2023-05-10T22:00:30.035Z,100659.47
2023-05-10T22:03:00.935Z,100660.77
2023-05-10T22:05:28.638Z,100666.60
2023-05-10T22:07:56.262Z,100663.38
2023-05-10T22:10:23.872Z,100663.45
2023-05-10T22:12:51.800Z,100663.68
2023-05-10T22:15:19.482Z,100664.27
2023-05-10T22:17:47.987Z,100665.55
2023-05-10T22:20:15.794Z,100667.34
2023-05-10T22:22:44.468Z,100669.33
2023-05-10T22:25:12.019Z,100668.70
2023-05-10T22:27:39.803Z,100672.42
2023-05-10T22:30:08.132Z,100676.30
2023-05-10T22:32:35.803Z,100681.06
2023-05-10T22:35:04.219Z,100680.27
2023-05-10T22:37:32.216Z,100683.48
2023-05-10T22:39:59.706Z,100684.60
2023-05-10T22:42:27.360Z,100685.17
2023-05-10T22:44:54.976Z,100690.98
2023-05-10T22:47:22.522Z,100694.69
2023-05-10T22:49:50.147Z,100693.67
2023-05-10T22:52:17.709Z,100694.57
2023-05-10T22:54:45.300Z,100694.41
2023-05-10T22:57:13.102Z,100695.98
2023-05-10T22:59:40.729Z,100694.95
2023-05-10T23:02:09.646Z,100696.05
2023-05-10T23:04:37.495Z,100697.84
2023-05-10T23:07:05.297Z,100700.30
2023-05-10T23:09:33.071Z,100697.70
2023-05-10T23:12:00.597Z,100701.58
2023-05-10T23:14:28.198Z,100705.27
2023-05-10T23:16:55.976Z,100703.23
2023-05-10T23:19:24.727Z,100702.92
2023-05-10T23:21:52.287Z,100704.35
2023-05-10T23:24:19.904Z,100706.46
2023-05-10T23:26:47.472Z,100707.02
2023-05-10T23:29:16.375Z,100704.64
2023-05-10T23:31:46.276Z,100710.77
2023-05-10T23:34:13.850Z,100705.41
2023-05-10T23:36:41.407Z,100708.92
2023-05-10T23:39:08.938Z,100709.66
2023-05-10T23:41:38.093Z,100707.77
2023-05-10T23:44:08.016Z,100707.80
2023-05-10T23:46:35.567Z,100709.02
2023-05-10T23:49:03.244Z,100705.23
2023-05-10T23:51:30.857Z,100706.29
2023-05-10T23:54:00.246Z,100708.55
2023-05-10T23:56:27.974Z,100707.17
2023-05-10T23:58:55.731Z,100707.57
